Time;durP1;ratioP1;P1;durP2;ratioP2;P2;SDS_P1;SDS_P2;PMS_P1;PMS_P2;Temp;Humidity;BMP_temperature;BMP_pressure;BME280_temperature;BME280_humidity;BME280_pressure;Samples;Min_cycle;Max_cycle;Signal;HPM_P1;HPM_P2
2024/01/29 00:00:16;;;;;;;12.43;5.97;;;;;;;-0.25;100.00;100805.75;4500947;31;20193;-74
2024/01/29 00:02:46;;;;;;;14.02;6.28;;;;;;;-0.24;100.00;100804.03;4500702;31;20081;-74
2024/01/29 00:05:13;;;;;;;15.68;5.62;;;;;;;-0.23;100.00;100803.16;4501014;31;20088;-74
2024/01/29 00:07:41;;;;;;;14.43;6.85;;;;;;;-0.31;100.00;100807.56;4500823;31;20158;-74
2024/01/29 00:10:09;;;;;;;11.70;5.75;;;;;;;-0.48;100.00;100806.00;4500974;31;20507;-74
2024/01/29 00:12:38;;;;;;;11.85;5.47;;;;;;;-0.54;100.00;100798.38;4500730;31;20115;-74
2024/01/29 00:15:06;;;;;;;13.07;5.47;;;;;;;-0.48;100.00;100802.59;4500957;31;20100;-74
2024/01/29 00:17:34;;;;;;;16.67;5.68;;;;;;;-0.66;100.00;100799.34;4500814;31;20092;-74
2024/01/29 00:20:02;;;;;;;11.45;6.05;;;;;;;-0.66;100.00;100791.62;4486742;31;20115;-74
2024/01/29 00:22:29;;;;;;;13.05;5.50;;;;;;;-0.62;100.00;100793.28;4484983;32;20109;-74
2024/01/29 00:24:57;;;;;;;9.98;5.43;;;;;;;-0.73;100.00;100795.12;4484931;31;20156;-74
2024/01/29 00:27:25;;;;;;;15.25;5.85;;;;;;;-0.60;100.00;100794.13;4485049;31;20080;-74
2024/01/29 00:29:52;;;;;;;15.50;5.28;;;;;;;-0.54;100.00;100788.91;4487668;31;20096;-74
2024/01/29 00:32:20;;;;;;;17.25;6.35;;;;;;;-0.52;100.00;100785.47;4500607;31;20093;-74
2024/01/29 00:34:47;;;;;;;14.40;5.65;;;;;;;-0.53;100.00;100784.59;4500822;31;20167;-74
2024/01/29 00:37:15;;;;;;;13.75;5.90;;;;;;;-0.59;100.00;100785.53;4501159;31;20158;-74
2024/01/29 00:39:42;;;;;;;11.00;5.32;;;;;;;-0.60;100.00;100794.13;4500678;31;20100;-74
2024/01/29 00:42:11;;;;;;;14.27;6.35;;;;;;;-0.84;100.00;100789.25;4500798;31;20096;-74
2024/01/29 00:44:39;;;;;;;11.25;5.50;;;;;;;-0.79;100.00;100795.19;4500327;31;20103;-74
2024/01/29 00:47:06;;;;;;;14.25;5.70;;;;;;;-0.83;100.00;100791.78;4500693;31;20135;-74
2024/01/29 00:49:34;;;;;;;15.07;6.32;;;;;;;-0.88;100.00;100788.41;4500427;31;20096;-74
2024/01/29 00:52:04;;;;;;;15.73;6.20;;;;;;;-0.75;100.00;100792.56;4500724;31;21101;-74
2024/01/29 00:54:31;;;;;;;15.90;5.60;;;;;;;-0.61;100.00;100794.13;4500395;31;20091;-74
2024/01/29 00:56:59;;;;;;;11.40;5.65;;;;;;;-0.60;100.00;100794.13;4500525;31;20084;-74
2024/01/29 00:59:33;;;;;;;18.58;5.93;;;;;;;-0.52;100.00;100799.19;4500579;31;20183;-74
2024/01/29 01:02:00;;;;;;;13.52;5.65;;;;;;;-0.68;100.00;100802.78;4500478;31;20096;-74
2024/01/29 01:04:28;;;;;;;13.75;5.37;;;;;;;-0.66;100.00;100813.94;4500231;31;20111;-74
2024/01/29 01:06:56;;;;;;;7.90;4.97;;;;;;;-0.64;100.00;100815.59;4500591;31;20118;-74
2024/01/29 01:09:23;;;;;;;15.43;5.95;;;;;;;-0.58;100.00;100812.97;4500283;31;20118;-74
2024/01/29 01:11:51;;;;;;;16.15;6.65;;;;;;;-0.51;100.00;100816.34;4500562;31;20130;-74
2024/01/29 01:14:19;;;;;;;15.15;6.30;;;;;;;-0.54;100.00;100827.53;4500144;31;20096;-74
2024/01/29 01:16:48;;;;;;;16.42;5.57;;;;;;;-0.58;100.00;100823.25;4500509;31;20114;-74
2024/01/29 01:19:16;;;;;;;11.50;5.25;;;;;;;-0.58;100.00;100825.84;4490872;31;20156;-74
2024/01/29 01:21:43;;;;;;;13.65;5.78;;;;;;;-0.52;100.00;100822.34;4484492;31;20180;-74
2024/01/29 01:24:11;;;;;;;13.38;5.60;;;;;;;-0.68;100.00;100834.53;4484542;31;20454;-74
2024/01/29 01:26:38;;;;;;;13.90;5.45;;;;;;;-0.71;100.00;100839.72;4484583;32;20075;-74
2024/01/29 01:29:06;;;;;;;11.55;4.40;;;;;;;-0.78;100.00;100836.34;4484437;31;20104;-74
2024/01/29 01:31:34;;;;;;;13.93;5.60;;;;;;;-0.84;100.00;100838.13;4498275;31;20130;-74
2024/01/29 01:34:02;;;;;;;10.32;5.30;;;;;;;-1.00;100.00;100837.37;4500280;31;20091;-74
2024/01/29 01:36:30;;;;;;;16.05;6.43;;;;;;;-1.18;100.00;100833.25;4500117;31;20179;-74
2024/01/29 01:38:58;;;;;;;17.85;6.60;;;;;;;-1.18;100.00;100833.25;4500200;31;20571;-74
2024/01/29 01:41:26;;;;;;;15.98;5.60;;;;;;;-1.23;100.00;100819.56;4500312;31;20099;-74
2024/01/29 01:43:53;;;;;;;12.77;5.12;;;;;;;-1.12;100.00;100812.63;4500063;31;20104;-74
2024/01/29 01:46:23;;;;;;;15.70;5.95;;;;;;;-1.11;100.00;100815.19;4499994;31;20110;-74
2024/01/29 01:48:51;;;;;;;11.90;5.87;;;;;;;-1.19;100.00;100816.13;4500003;31;20092;-74
2024/01/29 01:51:20;;;;;;;14.70;6.10;;;;;;;-1.19;100.00;100816.13;4500090;31;20474;-74
2024/01/29 01:53:54;;;;;;;10.43;5.60;;;;;;;-1.20;100.00;100810.09;4499956;31;20096;-74
2024/01/29 01:56:21;;;;;;;19.55;6.43;;;;;;;-1.17;100.00;100814.38;4500328;31;20084;-74
2024/01/29 01:58:49;;;;;;;13.43;5.45;;;;;;;-1.27;100.00;100814.47;4499828;31;20556;-74
2024/01/29 02:01:18;;;;;;;11.20;5.30;;;;;;;-1.34;100.00;100812.78;4500039;31;20619;-74
2024/01/29 02:03:45;;;;;;;13.65;5.50;;;;;;;-1.34;100.00;100815.38;4500028;31;20107;-74
2024/01/29 02:06:13;;;;;;;13.13;5.28;;;;;;;-1.26;100.00;100817.88;4499814;31;20150;-74
2024/01/29 02:08:41;;;;;;;12.30;5.50;;;;;;;-1.18;100.00;100822.94;4500079;31;20099;-74
2024/01/29 02:11:09;;;;;;;13.30;5.82;;;;;;;-1.27;100.00;100819.59;4499706;31;20122;-74
2024/01/29 02:13:36;;;;;;;13.85;5.35;;;;;;;-1.29;100.00;100805.91;4499904;31;20095;-74
2024/01/29 02:16:04;;;;;;;12.25;5.18;;;;;;;-1.25;100.00;100812.72;4500650;31;20213;-74
2024/01/29 02:18:33;;;;;;;10.45;4.78;;;;;;;-1.29;100.00;100805.03;4497162;31;20509;-74
2024/01/29 02:21:01;;;;;;;14.75;5.75;;;;;;;-1.37;100.00;100802.53;4485751;31;20084;-74
2024/01/29 02:23:29;;;;;;;11.23;6.07;;;;;;;-1.39;100.00;100801.69;4485831;31;20576;-74
2024/01/29 02:25:57;;;;;;;15.00;5.53;;;;;;;-1.26;100.00;100808.47;4485751;31;20100;-74
2024/01/29 02:28:25;;;;;;;11.60;4.93;;;;;;;-1.27;100.00;100801.59;4485823;31;20441;-74
2024/01/29 02:30:53;;;;;;;12.75;5.87;;;;;;;-1.26;100.00;100797.31;4494981;31;20104;-74
2024/01/29 02:33:21;;;;;;;9.73;5.00;;;;;;;-1.30;100.00;100793.06;4501569;31;20119;-74
2024/01/29 02:35:49;;;;;;;15.05;4.53;;;;;;;-1.26;100.00;100807.59;4501417;31;20131;-74
2024/01/29 02:38:17;;;;;;;12.15;4.78;;;;;;;-1.23;100.00;100805.00;4501678;31;20115;-74
2024/01/29 02:40:46;;;;;;;10.85;5.45;;;;;;;-1.20;100.00;100804.13;4501428;31;20100;-74
2024/01/29 02:43:15;;;;;;;12.27;5.10;;;;;;;-1.15;100.00;100797.22;4501624;31;20156;-74
2024/01/29 02:45:42;;;;;;;12.95;5.18;;;;;;;-1.20;100.00;100798.97;4501395;31;20115;-74
2024/01/29 02:48:09;;;;;;;13.80;5.40;;;;;;;-1.36;100.00;100799.09;4501485;31;20423;-74
2024/01/29 02:50:37;;;;;;;16.27;5.10;;;;;;;-1.43;100.00;100788.00;4501410;31;20091;-74
2024/01/29 02:53:04;;;;;;;13.35;5.37;;;;;;;-1.43;100.00;100788.00;4501791;31;20101;-74
2024/01/29 02:55:32;;;;;;;13.40;6.32;;;;;;;-1.46;100.00;100788.03;4501234;31;20095;-74
2024/01/29 02:58:02;;;;;;;14.93;5.25;;;;;;;-1.49;100.00;100789.78;4501471;31;20092;-74
2024/01/29 03:00:31;;;;;;;12.93;5.65;;;;;;;-1.65;100.00;100789.87;4501315;31;20092;-74
2024/01/29 03:02:59;;;;;;;11.63;5.18;;;;;;;-1.68;100.00;100782.19;4501464;31;20100;-74
2024/01/29 03:05:26;;;;;;;12.30;5.43;;;;;;;-1.67;100.00;100786.44;4501359;31;20449;-74
2024/01/29 03:07:54;;;;;;;19.87;7.65;;;;;;;-1.71;100.00;100781.34;4501639;31;20088;-74
2024/01/29 03:10:22;;;;;;;18.87;7.50;;;;;;;-1.77;100.00;100787.41;4501161;31;20119;-74
2024/01/29 03:12:49;;;;;;;18.37;6.10;;;;;;;-1.84;100.00;100789.13;4501394;31;20124;-74
2024/01/29 03:15:17;;;;;;;13.18;5.60;;;;;;;-1.85;100.00;100784.00;4501254;31;20572;-74
2024/01/29 03:17:45;;;;;;;10.85;5.05;;;;;;;-1.89;100.00;100790.88;4501210;31;20154;-74
2024/01/29 03:20:12;;;;;;;11.63;5.65;;;;;;;-1.89;100.00;100787.44;4485478;31;20579;-74
2024/01/29 03:22:40;;;;;;;12.68;5.25;;;;;;;-1.84;100.00;100788.28;4485475;31;20096;-74
2024/01/29 03:25:08;;;;;;;15.32;5.60;;;;;;;-1.82;100.00;100800.28;4485355;31;20079;-74
2024/01/29 03:27:35;;;;;;;13.18;5.70;;;;;;;-1.79;100.00;100795.12;4484579;31;20084;-74
2024/01/29 03:30:03;;;;;;;14.95;5.50;;;;;;;-1.72;100.00;100795.06;4489496;31;20172;-74
2024/01/29 03:32:32;;;;;;;13.80;5.55;;;;;;;-1.72;100.00;100795.91;4501372;31;20477;-74
2024/01/29 03:35:00;;;;;;;29.02;6.32;;;;;;;-1.73;100.00;100798.50;4500981;31;20079;-74
2024/01/29 03:37:28;;;;;;;15.23;5.75;;;;;;;-1.91;100.00;100800.28;4501134;31;20168;-74
2024/01/29 03:39:56;;;;;;;9.55;5.53;;;;;;;-1.97;100.00;100796.06;4501191;31;20150;-74
2024/01/29 03:42:24;;;;;;;17.48;5.78;;;;;;;-1.92;100.00;100797.72;4500991;31;20096;-74
2024/01/29 03:44:51;;;;;;;12.27;4.68;;;;;;;-1.91;100.00;100799.44;4501122;31;20104;-74
2024/01/29 03:47:18;;;;;;;14.95;5.57;;;;;;;-1.96;100.00;100796.91;4501079;31;20140;-74
2024/01/29 03:49:48;;;;;;;16.55;6.37;;;;;;;-1.95;100.00;100798.63;4500993;31;20089;-74
2024/01/29 03:52:18;;;;;;;24.77;8.35;;;;;;;-1.92;100.00;100793.47;4501329;31;20089;-74
2024/01/29 03:54:46;;;;;;;14.07;5.43;;;;;;;-1.91;100.00;100794.31;4501257;31;20148;-74
2024/01/29 03:57:14;;;;;;;16.75;5.75;;;;;;;-2.04;100.00;100794.38;4501148;31;20480;-74
2024/01/29 03:59:41;;;;;;;15.57;5.57;;;;;;;-2.18;100.00;100798.69;4501007;31;20096;-74
2024/01/29 04:02:10;;;;;;;13.05;5.60;;;;;;;-2.23;100.00;100790.19;4500847;31;20088;-74
2024/01/29 04:04:37;;;;;;;13.35;5.93;;;;;;;-2.32;100.00;100783.38;4500948;31;20091;-75
2024/01/29 04:07:06;;;;;;;16.40;7.00;;;;;;;-2.38;100.00;100791.94;4500821;31;20167;-74
2024/01/29 04:09:34;;;;;;;15.25;6.47;;;;;;;-2.51;100.00;100798.81;4500906;31;20100;-74
2024/01/29 04:12:02;;;;;;;11.02;5.80;;;;;;;-2.62;100.00;100799.72;4500903;31;20539;-75
2024/01/29 04:14:30;;;;;;;11.68;5.20;;;;;;;-2.67;100.00;100798.00;4500791;31;20109;-74
2024/01/29 04:16:58;;;;;;;8.27;4.43;;;;;;;-2.76;100.00;100797.19;4500823;31;20184;-75
2024/01/29 04:19:25;;;;;;;9.13;4.05;;;;;;;-2.82;100.00;100790.34;4490490;31;20616;-75
2024/01/29 04:21:53;;;;;;;10.95;4.15;;;;;;;-2.73;100.00;100797.16;4484854;31;20093;-74
2024/01/29 04:24:20;;;;;;;15.25;5.12;;;;;;;-2.74;100.00;100795.44;4485447;31;20153;-74
2024/01/29 04:26:48;;;;;;;12.48;4.82;;;;;;;-2.65;100.00;100803.13;4484878;31;20089;-74
2024/01/29 04:29:16;;;;;;;9.52;4.95;;;;;;;-2.54;100.00;100809.09;4484969;31;20148;-75
2024/01/29 04:31:43;;;;;;;8.18;4.20;;;;;;;-2.52;100.00;100796.28;4499999;31;20586;-74
2024/01/29 04:34:11;;;;;;;13.35;4.43;;;;;;;-2.56;100.00;100795.44;4500624;31;20448;-74
2024/01/29 04:36:39;;;;;;;12.35;4.93;;;;;;;-2.59;100.00;100802.28;4500861;31;20096;-74
2024/01/29 04:39:06;;;;;;;11.43;5.28;;;;;;;-2.69;100.00;100801.44;4500298;31;20100;-75
2024/01/29 04:41:34;;;;;;;11.10;4.20;;;;;;;-2.73;100.00;100787.75;4500645;31;20087;-74
2024/01/29 04:44:02;;;;;;;11.95;4.62;;;;;;;-2.80;100.00;100787.78;4500928;31;20095;-74
2024/01/29 04:46:32;;;;;;;7.65;4.07;;;;;;;-2.84;100.00;100784.38;4500734;31;20064;-74
2024/01/29 04:49:00;;;;;;;11.63;4.43;;;;;;;-2.88;100.00;100787.78;4500835;31;20093;-74
2024/01/29 04:51:28;;;;;;;11.32;4.53;;;;;;;-2.90;100.00;100798.06;4500924;31;20795;-74
2024/01/29 04:53:55;;;;;;;9.57;4.12;;;;;;;-2.93;100.00;100800.63;4501067;31;20110;-74
2024/01/29 04:56:23;;;;;;;13.82;4.80;;;;;;;-2.63;100.00;100798.03;4500622;31;20103;-75
2024/01/29 04:58:51;;;;;;;12.98;4.47;;;;;;;-2.58;100.00;100801.41;4500661;31;20084;-75
2024/01/29 05:01:18;;;;;;;9.98;4.57;;;;;;;-2.44;100.00;100809.91;4498032;31;20495;-74
2024/01/29 05:03:47;;;;;;;11.02;4.25;;;;;;;-2.42;100.00;100809.91;4490511;31;20130;-74
2024/01/29 05:06:19;;;;;;;13.40;6.30;;;;;;;-2.29;100.00;100818.44;4497702;31;20076;-74
2024/01/29 05:08:47;;;;;;;17.73;5.10;;;;;;;-2.25;100.00;100820.16;4491319;31;20591;-75
2024/01/29 05:11:15;;;;;;;11.80;5.65;;;;;;;-2.27;100.00;100822.72;4499462;31;20466;-75
2024/01/29 05:13:42;;;;;;;12.20;5.22;;;;;;;-2.38;100.00;100825.28;4491411;31;20115;-75
2024/01/29 05:16:10;;;;;;;10.77;5.30;;;;;;;-2.44;100.00;100817.63;4484596;31;20603;-74
2024/01/29 05:18:38;;;;;;;14.07;5.07;;;;;;;-2.39;100.00;100817.59;4489615;31;20167;-74
2024/01/29 05:21:06;;;;;;;21.85;6.90;;;;;;;-2.43;100.00;100809.06;4489700;31;20122;-74
2024/01/29 05:23:34;;;;;;;15.18;6.20;;;;;;;-2.44;100.00;100814.22;4499456;31;20470;-74
2024/01/29 05:26:02;;;;;;;11.88;5.40;;;;;;;-2.41;100.00;100817.59;4494264;31;20157;-74
2024/01/29 05:28:29;;;;;;;13.95;5.80;;;;;;;-2.45;100.00;100822.75;4496017;31;20446;-75
2024/01/29 05:30:57;;;;;;;23.92;8.27;;;;;;;-2.32;100.00;100827.00;4491207;31;20088;-74
2024/01/29 05:33:24;;;;;;;18.75;7.10;;;;;;;-2.28;100.00;100821.00;4487434;31;20156;-75
2024/01/29 05:35:55;;;;;;;15.98;6.72;;;;;;;-2.36;100.00;100827.88;4488795;31;20139;-75
2024/01/29 05:38:24;;;;;;;14.20;6.95;;;;;;;-2.24;100.00;100822.72;4486847;31;20195;-74
2024/01/29 05:40:51;;;;;;;15.68;5.53;;;;;;;-2.28;100.00;100825.28;4484329;31;20129;-74
2024/01/29 05:43:20;;;;;;;15.85;6.18;;;;;;;-2.27;100.00;100821.84;4484541;31;20570;-74
2024/01/29 05:45:48;;;;;;;16.40;6.95;;;;;;;-2.24;100.00;100814.13;4492578;31;20096;-73
2024/01/29 05:48:16;;;;;;;17.48;7.25;;;;;;;-2.24;100.00;100811.56;4489938;31;20144;-74
2024/01/29 05:50:45;;;;;;;14.57;6.37;;;;;;;-2.26;100.00;100815.88;4490434;31;20551;-74
2024/01/29 05:53:13;;;;;;;20.23;6.50;;;;;;;-2.24;100.00;100809.87;4498630;31;20100;-74
2024/01/29 05:55:40;;;;;;;37.58;6.95;;;;;;;-2.23;100.00;100809.00;4495915;31;20083;-74
2024/01/29 05:58:08;;;;;;;20.80;6.45;;;;;;;-2.27;100.00;100809.00;4487742;31;20096;-74
2024/01/29 06:00:36;;;;;;;24.12;6.75;;;;;;;-2.34;100.00;100808.19;4494771;31;20096;-74
2024/01/29 06:03:04;;;;;;;25.48;6.45;;;;;;;-2.35;100.00;100815.06;4488576;31;20105;-75
2024/01/29 06:05:33;;;;;;;12.45;5.87;;;;;;;-2.39;100.00;100813.34;4489268;31;20138;-75
2024/01/29 06:08:04;;;;;;;17.90;6.10;;;;;;;-2.33;100.00;100818.47;4497778;31;20111;-74
2024/01/29 06:10:32;;;;;;;17.05;6.18;;;;;;;-2.28;100.00;100825.28;4495892;31;20091;-74
2024/01/29 06:13:02;;;;;;;17.00;6.40;;;;;;;-2.40;100.00;100816.75;4487453;31;20080;-74
2024/01/29 06:15:31;;;;;;;18.00;6.37;;;;;;;-2.39;100.00;100822.72;4498317;31;20433;-74
2024/01/29 06:17:59;;;;;;;29.05;6.53;;;;;;;-2.46;100.00;100826.19;4498095;31;20163;-74
2024/01/29 06:20:26;;;;;;;23.05;7.05;;;;;;;-2.52;100.00;100829.63;4496763;31;20119;-74
2024/01/29 06:22:56;;;;;;;20.05;6.65;;;;;;;-2.47;100.00;100830.47;4497289;31;20104;-74
2024/01/29 06:25:24;;;;;;;17.95;7.50;;;;;;;-2.43;100.00;100828.75;4495289;31;20160;-74
2024/01/29 06:27:51;;;;;;;21.50;6.78;;;;;;;-2.30;100.00;100838.13;4486753;31;20096;-74
2024/01/29 06:30:18;;;;;;;25.12;7.20;;;;;;;-2.31;100.00;100828.72;4491772;31;20168;-75
2024/01/29 06:32:47;;;;;;;23.35;6.50;;;;;;;-2.28;100.00;100835.56;4499181;31;20164;-75
2024/01/29 06:35:15;;;;;;;30.25;7.90;;;;;;;-2.16;100.00;100830.37;4482637;31;76059;-74
2024/01/29 06:37:43;;;;;;;11.55;5.60;;;;;;;-2.15;100.00;100834.63;4484775;31;20108;-73
2024/01/29 06:40:11;;;;;;;22.90;11.00;;;;;;;-2.03;100.00;100842.31;4483746;31;20462;-73
2024/01/29 06:42:39;;;;;;;23.98;7.97;;;;;;;-1.97;100.00;100851.69;4493609;31;20100;-73
2024/01/29 06:45:09;;;;;;;25.30;6.72;;;;;;;-1.88;100.00;100837.97;4489652;31;20127;-73
2024/01/29 06:47:37;;;;;;;23.40;6.45;;;;;;;-1.81;100.00;100840.50;4495517;31;20169;-73
2024/01/29 06:50:04;;;;;;;42.88;7.40;;;;;;;-1.76;100.00;100837.06;4496345;31;20526;-74
2024/01/29 06:52:32;;;;;;;18.92;5.95;;;;;;;-1.66;100.00;100831.84;4497239;31;20111;-73
2024/01/29 06:55:02;;;;;;;46.33;7.85;;;;;;;-1.57;100.00;100842.97;4494705;31;20095;-73
2024/01/29 06:57:31;;;;;;;35.13;7.22;;;;;;;-1.58;100.00;100834.38;4487173;31;20108;-74
2024/01/29 06:59:59;;;;;;;22.87;6.78;;;;;;;-1.55;100.00;100838.66;4490665;31;20159;-73
2024/01/29 07:02:27;;;;;;;19.33;6.40;;;;;;;-1.44;100.00;100836.84;4498644;31;20542;-74
2024/01/29 07:04:54;;;;;;;28.02;6.62;;;;;;;-1.34;100.00;100848.78;4482015;31;20105;-74
2024/01/29 07:07:22;;;;;;;41.13;7.57;;;;;;;-1.24;100.00;100844.44;4486389;31;20122;-75
2024/01/29 07:09:53;;;;;;;19.17;6.62;;;;;;;-1.19;100.00;100849.56;4483737;31;20096;-74
2024/01/29 07:12:21;;;;;;;15.02;6.03;;;;;;;-1.11;100.00;100845.19;4490866;31;20114;-73
2024/01/29 07:14:52;;;;;;;23.55;5.62;;;;;;;-0.90;100.00;100854.47;4492888;31;20111;-74
2024/01/29 07:17:22;;;;;;;29.40;6.03;;;;;;;-0.72;100.00;100854.28;4493856;31;20101;-73
2024/01/29 07:19:51;;;;;;;15.63;6.20;;;;;;;-0.62;100.00;100861.94;4491367;31;20118;-74
2024/01/29 07:22:21;;;;;;;12.75;5.72;;;;;;;-0.53;100.00;100859.25;4500830;31;20511;-73
2024/01/29 07:24:49;;;;;;;18.12;6.55;;;;;;;-0.43;100.00;100858.31;4490331;31;20491;-73
2024/01/29 07:27:17;;;;;;;12.65;6.35;;;;;;;-0.16;100.00;100868.34;4496450;31;20108;-73
2024/01/29 07:29:45;;;;;;;12.18;5.72;;;;;;;-0.12;100.00;100864.84;4498129;31;20363;-74
2024/01/29 07:32:12;;;;;;;11.82;5.07;;;;;;;0.04;100.00;100861.22;4492846;31;20174;-74
2024/01/29 07:34:42;;;;;;;11.48;5.60;;;;;;;0.21;100.00;100862.75;4497314;31;20577;-76
2024/01/29 07:37:11;;;;;;;10.77;5.40;;;;;;;0.41;100.00;100871.06;4489076;31;20100;-75
2024/01/29 07:39:38;;;;;;;10.45;4.75;;;;;;;0.53;100.00;100870.91;4496064;31;20111;-75
2024/01/29 07:42:06;;;;;;;10.45;4.95;;;;;;;0.77;100.00;100873.97;4488092;31;20096;-75
2024/01/29 07:44:33;;;;;;;11.32;5.53;;;;;;;0.92;100.00;100879.81;4482027;31;20130;-76
2024/01/29 07:47:01;;;;;;;17.60;7.05;;;;;;;0.86;100.00;100875.56;4496028;31;20123;-75
2024/01/29 07:49:31;;;;;;;14.25;6.15;;;;;;;1.07;100.00;100876.97;4498758;31;20139;-76
2024/01/29 07:52:01;;;;;;;18.55;6.30;;;;;;;1.20;100.00;100869.91;4494481;31;20520;-74
2024/01/29 07:54:30;;;;;;;12.40;5.03;;;;;;;1.24;100.00;100871.53;4493558;31;20135;-74
2024/01/29 07:56:58;;;;;;;16.58;5.87;;;;;;;1.27;100.00;100865.47;4486736;31;20104;-74
2024/01/29 07:59:26;;;;;;;14.45;5.00;;;;;;;1.33;100.00;100870.53;4500297;31;20092;-73
2024/01/29 08:01:53;;;;;;;14.60;5.55;;;;;;;1.31;100.00;100870.56;4494371;31;20111;-73
2024/01/29 08:04:21;;;;;;;11.15;5.15;;;;;;;1.35;100.00;100867.03;4485212;31;20092;-75
2024/01/29 08:06:49;;;;;;;13.43;5.65;;;;;;;1.53;100.00;100871.03;4496668;31;20165;-74
2024/01/29 08:09:19;;;;;;;11.95;6.20;;;;;;;1.58;100.00;100863.19;4494198;31;20092;-75
2024/01/29 08:11:47;;;;;;;11.38;5.20;;;;;;;1.70;100.00;100864.72;4498466;31;20123;-72
2024/01/29 08:14:15;;;;;;;12.13;5.85;;;;;;;1.88;100.00;100861.75;4485880;31;20099;-72
2024/01/29 08:16:42;;;;;;;9.60;4.62;;;;;;;1.90;100.00;100865.16;4492584;31;20097;-73
2024/01/29 08:19:10;;;;;;;11.77;5.37;;;;;;;2.02;100.00;100866.66;4493817;31;20204;-72
2024/01/29 08:21:40;;;;;;;12.93;4.75;;;;;;;2.01;100.00;100869.28;4491987;31;20122;-71
2024/01/29 08:24:07;;;;;;;13.27;4.80;;;;;;;2.04;100.00;100864.88;4493105;31;20092;-71
2024/01/29 08:26:35;;;;;;;9.75;4.18;;;;;;;1.97;100.00;100862.44;4494398;31;20096;-71
2024/01/29 08:29:02;;;;;;;12.15;4.97;;;;;;;2.05;100.00;100852.81;4497148;31;20100;-71
2024/01/29 08:31:30;;;;;;;14.20;4.15;;;;;;;2.19;100.00;100855.97;4492259;31;20130;-71
2024/01/29 08:34:03;;;;;;;11.68;4.62;;;;;;;2.27;100.00;100859.25;4491857;31;20129;-71
2024/01/29 08:36:33;;;;;;;9.95;4.05;;;;;;;2.33;100.00;100858.25;4491976;31;20133;-72
2024/01/29 08:39:01;;;;;;;10.05;4.65;;;;;;;2.45;100.00;100864.91;4491695;31;20115;-71
2024/01/29 08:41:29;;;;;;;10.88;4.40;;;;;;;2.40;100.00;100866.75;4494157;31;20091;-72
2024/01/29 08:43:56;;;;;;;9.63;4.25;;;;;;;2.46;100.00;100869.19;4492668;31;20140;-71
2024/01/29 08:46:24;;;;;;;11.60;4.87;;;;;;;2.27;100.00;100872.19;4492852;31;20963;-72
2024/01/29 08:48:53;;;;;;;15.93;4.72;;;;;;;2.42;100.00;100868.44;4497335;31;20209;-72
2024/01/29 08:51:21;;;;;;;9.18;4.35;;;;;;;2.67;100.00;100868.72;4493680;31;20203;-71
2024/01/29 08:53:49;;;;;;;11.60;4.40;;;;;;;2.79;100.00;100872.75;4491940;31;20092;-72
2024/01/29 08:56:17;;;;;;;12.93;4.43;;;;;;;2.77;100.00;100869.38;4492084;31;20096;-71
2024/01/29 08:58:45;;;;;;;8.88;4.25;;;;;;;2.85;100.00;100871.78;4491371;31;20100;-72
2024/01/29 09:01:15;;;;;;;10.13;3.95;;;;;;;2.87;100.00;100877.75;4488158;31;20128;-71
2024/01/29 09:03:44;;;;;;;11.73;5.00;;;;;;;2.76;100.00;100882.34;4493002;31;20135;-72
2024/01/29 09:06:14;;;;;;;9.75;4.50;;;;;;;2.91;100.00;100881.97;4494190;31;20104;-73
2024/01/29 09:08:43;;;;;;;10.75;5.00;;;;;;;2.75;100.00;100873.72;4491222;31;20162;-73
2024/01/29 09:11:10;;;;;;;15.23;5.87;;;;;;;2.91;100.00;100875.97;4492604;31;20119;-71
2024/01/29 09:13:40;;;;;;;15.48;5.90;;;;;;;2.98;100.00;100882.66;4497519;31;20087;-72
2024/01/29 09:16:11;;;;;;;12.07;5.07;;;;;;;3.11;100.00;100878.91;4492243;31;20139;-72
2024/01/29 09:18:41;;;;;;;16.48;6.15;;;;;;;3.30;100.00;100892.28;4493843;31;20515;-73
2024/01/29 09:21:10;;;;;;;12.50;5.25;;;;;;;3.43;100.00;100882.44;4494602;31;20126;-73
2024/01/29 09:23:38;;;;;;;13.20;5.90;;;;;;;3.19;100.00;100891.66;4489036;31;20091;-72
2024/01/29 09:26:07;;;;;;;17.00;7.12;;;;;;;3.27;100.00;100889.75;4494737;31;20189;-73
2024/01/29 09:28:35;;;;;;;19.95;6.20;;;;;;;3.07;100.00;100902.31;4487149;31;20879;-74
2024/01/29 09:31:04;;;;;;;17.37;6.90;;;;;;;3.16;100.00;100882.25;4488472;31;20114;-74
2024/01/29 09:33:32;;;;;;;17.17;9.50;;;;;;;3.32;100.00;100887.03;4489516;31;20095;-74
2024/01/29 09:36:00;;;;;;;12.15;6.70;;;;;;;3.30;100.00;100883.63;4494297;31;20157;-75
2024/01/29 09:38:32;;;;;;;16.08;6.50;;;;;;;3.40;100.00;100886.84;4496777;31;20797;-74
2024/01/29 09:41:03;;;;;;;13.57;5.65;;;;;;;3.50;100.00;100883.97;4502795;31;20092;-73
2024/01/29 09:43:34;;;;;;;12.63;4.97;;;;;;;3.60;100.00;100876.78;4497776;31;20095;-75
2024/01/29 09:46:05;;;;;;;;;;;;;;;3.47;100.00;100881.47;4498128;31;20116;-75
2024/01/29 09:48:33;;;;;;;9.45;4.18;;;;;;;3.62;100.00;100880.22;4495564;31;19980;-75
2024/01/29 09:51:01;;;;;;;16.77;5.20;;;;;;;3.72;100.00;100886.00;4493584;31;20506;-76
2024/01/29 09:53:31;;;;;;;13.45;5.32;;;;;;;3.83;100.00;100890.87;4489438;31;20110;-75
2024/01/29 09:55:58;;;;;;;10.77;4.78;;;;;;;3.83;100.00;100888.28;4496969;31;20118;-74
2024/01/29 09:58:26;;;;;;;8.90;4.32;;;;;;;3.99;100.00;100888.75;4479538;31;20225;-77
2024/01/29 10:00:55;;;;;;;14.13;5.18;;;;;;;4.08;100.00;100886.72;4496238;31;20200;-76
2024/01/29 10:03:32;;;;;;;11.23;4.85;;;;;;;4.13;100.00;100893.53;4481001;31;20166;-74
2024/01/29 10:06:00;;;;;;;18.80;5.80;;;;;;;4.19;100.00;100894.19;4491422;31;20134;-74
2024/01/29 10:08:32;;;;;;;12.20;5.45;;;;;;;4.15;100.00;100899.50;4494338;31;20156;-74
2024/01/29 10:11:01;;;;;;;8.57;4.03;;;;;;;4.05;100.00;100894.59;4483577;31;20091;-74
2024/01/29 10:13:29;;;;;;;8.10;3.67;;;;;;;4.22;100.00;100891.53;4498310;31;20123;-74
2024/01/29 10:15:58;;;;;;;6.97;3.03;;;;;;;4.29;100.00;100887.00;4478378;31;20159;-74
2024/01/29 10:18:26;;;;;;;7.50;3.37;;;;;;;4.43;100.00;100884.00;4492276;31;20112;-73
2024/01/29 10:21:04;;;;;;;7.12;3.75;;;;;;;4.64;100.00;100886.88;4490844;31;20109;-74
2024/01/29 10:23:32;;;;;;;5.70;3.00;;;;;;;4.69;99.46;100885.81;4496940;31;20092;-74
2024/01/29 10:26:00;;;;;;;6.72;3.10;;;;;;;4.61;96.95;100888.63;4495943;31;20108;-74
2024/01/29 10:28:28;;;;;;;10.77;3.72;;;;;;;4.53;97.62;100882.84;4494087;31;20139;-74
2024/01/29 10:30:56;;;;;;;15.65;4.78;;;;;;;4.71;98.68;100885.75;4492704;31;20122;-75
2024/01/29 10:33:26;;;;;;;10.40;5.37;;;;;;;4.49;97.70;100893.38;4493189;31;20123;-74
2024/01/29 10:35:58;;;;;;;11.35;5.62;;;;;;;4.55;100.00;100890.59;4493072;31;20092;-74
2024/01/29 10:38:26;;;;;;;14.45;6.30;;;;;;;4.53;100.00;100889.78;4486421;31;20107;-73
2024/01/29 10:40:55;;;;;;;12.25;5.28;;;;;;;4.19;99.85;100885.56;4496587;31;20118;-73
2024/01/29 10:43:34;;;;;;;10.63;5.85;;;;;;;4.22;100.00;100896.72;4481314;31;20114;-74
2024/01/29 10:46:05;;;;;;;16.00;5.68;;;;;;;4.09;100.00;100893.63;4479899;31;20453;-73
2024/01/29 10:48:34;;;;;;;13.62;5.82;;;;;;;4.39;100.00;100893.63;4492747;31;20122;-72
2024/01/29 10:51:05;;;;;;;18.08;6.15;;;;;;;4.50;100.00;100884.69;4476657;31;20100;-74
2024/01/29 10:53:34;;;;;;;15.88;6.60;;;;;;;4.72;100.00;100880.50;4503122;31;20476;-74
2024/01/29 10:56:02;;;;;;;15.73;6.47;;;;;;;4.66;100.00;100883.31;4488921;31;20493;-74
2024/01/29 10:58:31;;;;;;;12.20;6.60;;;;;;;4.86;100.00;100876.66;4506192;31;20107;-73
2024/01/29 11:00:59;;;;;;;13.70;6.25;;;;;;;4.73;99.41;100869.25;4498357;31;20122;-73
2024/01/29 11:03:27;;;;;;;12.57;6.95;;;;;;;4.82;100.00;100869.88;4499435;31;20532;-73
2024/01/29 11:06:22;;;;;;;16.87;6.93;;;;;;;4.86;100.00;100863.66;4501945;31;20122;-73
2024/01/29 11:08:57;;;;;;;11.63;6.40;;;;;;;4.87;100.00;100863.59;4498294;31;20114;-74
2024/01/29 11:11:29;;;;;;;18.33;7.18;;;;;;;4.64;100.00;100863.50;4492664;31;20100;-74
2024/01/29 11:13:56;;;;;;;17.33;7.90;;;;;;;4.80;100.00;100852.59;4496519;31;20457;-73
2024/01/29 11:16:24;;;;;;;21.65;7.47;;;;;;;4.72;100.00;100849.34;4498105;31;20096;-73